createdAt,value
2018-03-21T00:02:24.036Z,6.37
2018-03-21T00:04:51.520Z,5.40
2018-03-21T00:07:19.082Z,6.47
2018-03-21T00:09:46.536Z,5.30
2018-03-21T00:12:14.002Z,5.57
2018-03-21T00:14:41.557Z,5.50
2018-03-21T00:17:09.066Z,5.33
2018-03-21T00:19:37.571Z,5.83
2018-03-21T00:22:05.052Z,5.60
2018-03-21T00:24:32.527Z,6.27
2018-03-21T00:26:59.972Z,5.40
2018-03-21T00:29:27.551Z,5.03
2018-03-21T00:31:54.995Z,5.13
2018-03-21T00:34:22.458Z,5.27
2018-03-21T00:36:49.982Z,5.77
2018-03-21T00:39:18.078Z,5.67
2018-03-21T00:41:45.630Z,5.00
2018-03-21T00:44:13.083Z,4.80
2018-03-21T00:46:40.572Z,5.57
2018-03-21T00:49:08.107Z,5.50
2018-03-21T00:51:35.604Z,4.50
2018-03-21T00:54:03.100Z,5.80
2018-03-21T00:56:30.563Z,4.73
2018-03-21T00:58:58.004Z,5.50
2018-03-21T01:01:25.466Z,4.97
2018-03-21T01:03:52.946Z,5.03
2018-03-21T01:06:20.406Z,5.83
2018-03-21T01:08:47.861Z,4.93
2018-03-21T01:11:15.306Z,5.13
2018-03-21T01:13:42.780Z,4.70
2018-03-21T01:16:10.240Z,4.83
2018-03-21T01:18:37.812Z,5.60
2018-03-21T01:21:05.332Z,4.97
2018-03-21T01:23:32.842Z,5.00
2018-03-21T01:26:00.318Z,4.50
2018-03-21T01:28:27.814Z,5.20
2018-03-21T01:30:55.332Z,5.40
2018-03-21T01:33:22.792Z,4.60
2018-03-21T01:35:50.266Z,5.17
2018-03-21T01:38:17.736Z,4.27
2018-03-21T01:40:45.216Z,5.13
2018-03-21T01:43:12.676Z,4.70
2018-03-21T01:45:40.134Z,5.03
2018-03-21T01:48:07.591Z,4.70
2018-03-21T01:50:35.145Z,5.07
2018-03-21T01:53:10.406Z,4.53
2018-03-21T01:55:37.919Z,5.50
2018-03-21T01:58:05.416Z,4.87
2018-03-21T02:00:33.115Z,4.80
2018-03-21T02:03:00.624Z,4.70
2018-03-21T02:05:28.055Z,5.20
2018-03-21T02:07:55.543Z,4.83
2018-03-21T02:10:23.864Z,4.80
2018-03-21T02:12:51.315Z,4.53
2018-03-21T02:15:18.805Z,4.83
2018-03-21T02:17:46.264Z,4.80
2018-03-21T02:20:13.743Z,4.60
2018-03-21T02:22:41.202Z,6.17
2018-03-21T02:25:08.669Z,4.17
2018-03-21T02:27:36.157Z,5.00
2018-03-21T02:30:03.613Z,4.60
2018-03-21T02:32:31.074Z,4.77
2018-03-21T02:34:58.536Z,4.83
2018-03-21T02:37:25.969Z,5.13
2018-03-21T02:39:53.405Z,5.30
2018-03-21T02:42:20.862Z,5.30
2018-03-21T02:44:48.401Z,5.47
2018-03-21T02:47:15.854Z,5.77
2018-03-21T02:49:43.316Z,5.43
2018-03-21T02:52:10.902Z,5.57
2018-03-21T02:54:38.351Z,6.00
2018-03-21T02:57:05.961Z,5.70
2018-03-21T02:59:33.546Z,5.27
2018-03-21T03:02:01.004Z,5.93
2018-03-21T03:04:28.503Z,5.90
2018-03-21T03:06:55.946Z,5.43
2018-03-21T03:09:23.373Z,5.50
2018-03-21T03:11:50.870Z,5.20
2018-03-21T03:14:18.328Z,5.83
2018-03-21T03:16:45.780Z,5.27
2018-03-21T03:19:13.229Z,5.77
2018-03-21T03:21:40.665Z,5.83
2018-03-21T03:24:08.111Z,6.27
2018-03-21T03:26:35.600Z,5.47
2018-03-21T03:29:03.060Z,5.20
2018-03-21T03:31:30.514Z,5.50
2018-03-21T03:33:57.997Z,5.53
2018-03-21T03:36:25.475Z,5.47
2018-03-21T03:38:52.939Z,5.43
2018-03-21T03:41:20.369Z,6.00
2018-03-21T03:43:47.807Z,6.23
2018-03-21T03:46:15.253Z,6.20
2018-03-21T03:48:42.681Z,5.60
2018-03-21T03:51:10.113Z,6.53
2018-03-21T03:53:37.571Z,5.57
2018-03-21T03:56:05.097Z,5.87
2018-03-21T03:58:32.577Z,5.60
2018-03-21T04:01:00.012Z,6.00
2018-03-21T04:03:27.449Z,5.67
2018-03-21T04:05:55.025Z,8.03
2018-03-21T04:08:22.475Z,8.20
2018-03-21T04:10:49.955Z,7.27
2018-03-21T04:13:17.423Z,6.07
2018-03-21T04:15:44.883Z,7.20
2018-03-21T04:18:12.351Z,6.07
2018-03-21T04:20:39.837Z,6.83
2018-03-21T04:23:07.295Z,6.40
2018-03-21T04:25:34.747Z,6.13
2018-03-21T04:28:02.305Z,6.37
2018-03-21T04:30:30.587Z,6.27
2018-03-21T04:32:58.077Z,6.70
2018-03-21T04:35:26.147Z,5.93
2018-03-21T04:38:07.836Z,6.03
2018-03-21T04:40:35.505Z,6.47
2018-03-21T04:43:03.138Z,6.27
2018-03-21T04:45:30.617Z,6.50
2018-03-21T04:47:58.836Z,5.97
2018-03-21T04:50:29.923Z,6.27
2018-03-21T04:52:57.370Z,7.37
2018-03-21T04:55:24.850Z,7.30
2018-03-21T05:01:04.106Z,7.03
2018-03-21T05:03:35.795Z,6.63
2018-03-21T05:06:04.446Z,7.13
2018-03-21T05:08:32.232Z,6.77
2018-03-21T05:11:00.018Z,7.30
2018-03-21T05:13:27.562Z,7.13
2018-03-21T05:15:55.187Z,8.00
2018-03-21T05:18:22.654Z,7.60
2018-03-21T05:20:50.249Z,7.47
2018-03-21T05:23:18.299Z,7.53
2018-03-21T05:25:45.959Z,6.97
2018-03-21T05:28:14.590Z,7.50
2018-03-21T05:30:42.127Z,7.63
2018-03-21T05:33:09.580Z,6.87
2018-03-21T05:35:37.054Z,6.83
2018-03-21T05:38:04.566Z,7.63
2018-03-21T05:40:32.051Z,6.80
2018-03-21T05:42:59.588Z,7.20
2018-03-21T05:45:27.210Z,7.43
2018-03-21T05:47:54.792Z,7.03
2018-03-21T05:50:22.270Z,7.07
2018-03-21T05:52:49.736Z,6.37
2018-03-21T05:55:18.044Z,7.93
2018-03-21T05:57:45.577Z,7.47
2018-03-21T06:00:13.030Z,8.40
2018-03-21T06:02:40.538Z,8.27
2018-03-21T06:05:08.926Z,7.90
2018-03-21T06:07:36.426Z,7.27
2018-03-21T06:10:03.974Z,7.50
2018-03-21T06:12:31.441Z,8.20
2018-03-21T06:14:58.997Z,8.00
2018-03-21T06:17:26.428Z,8.67
2018-03-21T06:19:53.910Z,7.87
2018-03-21T06:22:21.361Z,7.93
2018-03-21T06:24:48.810Z,8.87
2018-03-21T06:27:16.228Z,8.67
2018-03-21T06:29:43.696Z,7.80
2018-03-21T06:32:11.314Z,8.57
2018-03-21T06:34:38.782Z,10.17
2018-03-21T06:37:06.264Z,11.37
2018-03-21T06:39:33.720Z,10.30
2018-03-21T06:42:01.178Z,9.77
2018-03-21T06:44:28.622Z,11.07
2018-03-21T06:46:56.501Z,10.07
2018-03-21T06:49:24.014Z,10.80
2018-03-21T06:51:52.110Z,10.13
2018-03-21T06:54:20.671Z,10.80
2018-03-21T06:56:48.149Z,11.37
2018-03-21T06:59:15.612Z,10.77
2018-03-21T07:01:43.095Z,10.60
2018-03-21T07:04:10.564Z,10.90
2018-03-21T07:06:38.054Z,10.60
2018-03-21T07:09:05.573Z,10.20
2018-03-21T07:11:33.080Z,11.73
2018-03-21T07:14:12.472Z,10.43
2018-03-21T07:16:42.751Z,10.43
2018-03-21T07:19:10.214Z,11.83
2018-03-21T07:21:37.671Z,10.50
2018-03-21T07:24:05.159Z,11.13
2018-03-21T07:26:32.669Z,11.43
2018-03-21T07:29:00.210Z,11.13
2018-03-21T07:31:27.698Z,11.43
2018-03-21T07:33:55.295Z,11.03
2018-03-21T07:36:22.774Z,10.73
2018-03-21T07:38:50.360Z,11.47
2018-03-21T07:41:17.864Z,12.03
2018-03-21T07:43:45.404Z,12.07
2018-03-21T07:46:12.922Z,12.00
2018-03-21T07:48:40.444Z,12.83
2018-03-21T07:51:07.908Z,12.07
2018-03-21T07:53:35.372Z,12.33
2018-03-21T07:56:02.956Z,11.23
2018-03-21T07:58:30.413Z,10.80
2018-03-21T08:00:57.943Z,10.53
2018-03-21T08:03:25.479Z,10.57
2018-03-21T08:05:53.052Z,10.97
2018-03-21T08:08:25.545Z,10.60
2018-03-21T08:10:53.048Z,10.10
2018-03-21T08:13:20.562Z,10.33
2018-03-21T08:15:48.176Z,9.77
2018-03-21T08:18:29.982Z,10.63
2018-03-21T08:20:57.474Z,8.67
2018-03-21T08:23:25.021Z,10.80
2018-03-21T08:25:52.709Z,9.57
2018-03-21T08:28:34.390Z,11.20
2018-03-21T08:31:01.955Z,8.90
2018-03-21T08:33:29.406Z,9.70
2018-03-21T08:35:56.916Z,8.30
2018-03-21T08:38:29.392Z,10.23
2018-03-21T08:40:56.902Z,8.93
2018-03-21T08:43:24.403Z,9.27
2018-03-21T08:45:51.876Z,8.23
2018-03-21T08:48:19.320Z,9.83
2018-03-21T08:50:46.850Z,9.00
2018-03-21T08:53:14.374Z,7.27
2018-03-21T08:55:41.905Z,9.83
2018-03-21T08:58:09.388Z,9.43
2018-03-21T09:00:38.860Z,9.93
2018-03-21T09:03:06.702Z,9.67
2018-03-21T09:05:34.218Z,9.73
2018-03-21T09:08:01.672Z,9.00
2018-03-21T09:10:29.150Z,7.10
2018-03-21T09:12:56.758Z,8.33
2018-03-21T09:15:24.214Z,7.63
2018-03-21T09:17:56.721Z,7.90
2018-03-21T09:20:24.252Z,7.30
2018-03-21T09:22:51.736Z,5.80
2018-03-21T09:25:19.204Z,7.43
2018-03-21T09:27:46.745Z,7.00
2018-03-21T09:30:14.194Z,6.57
2018-03-21T09:32:41.671Z,7.40
2018-03-21T09:35:09.160Z,7.23
2018-03-21T09:37:36.643Z,7.73
2018-03-21T09:40:04.166Z,7.37
2018-03-21T09:42:31.656Z,6.77
2018-03-21T09:44:59.214Z,6.67
2018-03-21T09:47:26.850Z,7.17
2018-03-21T09:49:54.390Z,7.97
2018-03-21T09:52:21.840Z,7.37
2018-03-21T09:54:49.300Z,5.80
2018-03-21T09:57:16.761Z,6.50
2018-03-21T09:59:44.236Z,5.53
2018-03-21T10:02:12.414Z,6.53
2018-03-21T10:04:39.928Z,6.60
2018-03-21T10:07:08.039Z,6.20
2018-03-21T10:09:35.561Z,7.03
2018-03-21T10:12:03.060Z,6.03
2018-03-21T10:14:30.614Z,5.43
2018-03-21T10:16:58.040Z,5.20
2018-03-21T10:19:25.606Z,5.40
2018-03-21T10:21:53.153Z,5.63
2018-03-21T10:24:20.708Z,5.70
2018-03-21T10:26:48.166Z,5.80
2018-03-21T10:29:15.685Z,5.20
2018-03-21T10:31:43.158Z,5.43
2018-03-21T10:34:10.633Z,5.00
2018-03-21T10:36:38.111Z,6.07
2018-03-21T10:39:05.628Z,4.90
2018-03-21T10:41:33.082Z,5.33
2018-03-21T10:44:00.637Z,5.90
2018-03-21T10:46:28.148Z,5.47
2018-03-21T10:48:55.670Z,5.23
2018-03-21T10:51:23.134Z,4.83
2018-03-21T10:53:50.624Z,5.40
2018-03-21T10:56:18.135Z,5.40
2018-03-21T10:58:45.756Z,5.40
2018-03-21T11:01:18.728Z,4.90
2018-03-21T11:03:51.878Z,4.43
2018-03-21T11:06:19.402Z,4.53
2018-03-21T11:08:47.911Z,4.53
2018-03-21T11:11:15.389Z,4.10
2018-03-21T11:13:42.987Z,4.43
2018-03-21T11:16:10.829Z,4.57
2018-03-21T11:18:38.362Z,4.87
2018-03-21T11:21:05.876Z,4.83
2018-03-21T11:23:33.337Z,5.00
2018-03-21T11:26:00.841Z,5.00
2018-03-21T11:28:28.292Z,5.37
2018-03-21T11:30:55.764Z,4.60
2018-03-21T11:33:23.285Z,5.57
2018-03-21T11:35:50.800Z,5.43
2018-03-21T11:38:18.365Z,4.97
2018-03-21T11:40:45.875Z,3.27
2018-03-21T11:43:13.390Z,3.40
2018-03-21T11:45:40.904Z,3.80
2018-03-21T11:48:08.358Z,3.20
2018-03-21T11:50:35.889Z,3.50
2018-03-21T11:53:03.367Z,3.20
2018-03-21T11:55:30.937Z,3.47
2018-03-21T11:57:58.440Z,3.07
2018-03-21T12:00:25.952Z,2.93
2018-03-21T12:02:53.503Z,3.20
2018-03-21T12:05:21.181Z,3.40
2018-03-21T12:07:48.660Z,3.47
2018-03-21T12:10:16.301Z,4.20
2018-03-21T12:12:43.835Z,3.80
2018-03-21T12:15:11.314Z,2.63
2018-03-21T12:17:38.831Z,2.97
2018-03-21T12:20:06.309Z,3.63
2018-03-21T12:22:34.643Z,3.40
2018-03-21T12:25:02.127Z,3.23
2018-03-21T12:27:29.597Z,3.13
2018-03-21T12:29:57.095Z,3.60
2018-03-21T12:32:24.579Z,3.30
2018-03-21T12:34:52.069Z,3.57
2018-03-21T12:37:19.527Z,4.43
2018-03-21T12:39:47.059Z,5.30
2018-03-21T12:42:14.664Z,4.47
2018-03-21T12:44:42.116Z,3.93
2018-03-21T12:47:09.660Z,3.93
2018-03-21T12:49:37.185Z,4.20
2018-03-21T12:52:04.843Z,4.20
2018-03-21T12:54:32.358Z,3.77
2018-03-21T12:56:59.895Z,3.90
2018-03-21T12:59:29.921Z,3.77
2018-03-21T13:01:57.457Z,3.93
2018-03-21T13:04:25.031Z,3.97
2018-03-21T13:06:52.507Z,4.23
2018-03-21T13:09:19.954Z,3.93
2018-03-21T13:11:47.530Z,3.10
2018-03-21T13:14:14.993Z,3.93
2018-03-21T13:16:42.518Z,3.53
2018-03-21T13:19:10.032Z,3.87
2018-03-21T13:21:37.660Z,4.37
2018-03-21T13:24:05.027Z,4.10
2018-03-21T13:26:32.849Z,3.87
2018-03-21T13:29:09.990Z,3.97
2018-03-21T13:31:37.479Z,3.50
2018-03-21T13:34:05.289Z,3.40
2018-03-21T13:36:33.003Z,3.20
2018-03-21T13:39:00.617Z,3.67
2018-03-21T13:41:28.203Z,3.40
2018-03-21T13:43:55.793Z,3.60
2018-03-21T13:46:23.271Z,3.27
2018-03-21T13:48:51.230Z,3.00
2018-03-21T13:51:18.706Z,3.50
2018-03-21T13:53:46.177Z,3.33
2018-03-21T13:56:13.701Z,3.50
2018-03-21T13:58:41.271Z,3.50
2018-03-21T14:01:08.769Z,3.00
2018-03-21T14:03:36.276Z,3.30
2018-03-21T14:06:03.746Z,3.10
2018-03-21T14:08:31.374Z,3.10
2018-03-21T14:10:58.844Z,3.30
2018-03-21T14:13:26.311Z,3.20
2018-03-21T14:18:35.805Z,3.20
2018-03-21T14:21:03.248Z,3.33
2018-03-21T14:23:30.756Z,3.40
2018-03-21T14:25:58.246Z,3.13
2018-03-21T14:28:30.763Z,3.17
2018-03-21T14:30:58.283Z,4.20
2018-03-21T14:33:25.796Z,3.70
2018-03-21T14:35:54.251Z,3.53
2018-03-21T14:38:22.004Z,3.23
2018-03-21T14:40:49.495Z,3.60
2018-03-21T14:43:16.977Z,3.23
2018-03-21T14:45:44.482Z,3.10
2018-03-21T14:48:12.007Z,3.43
2018-03-21T14:50:39.521Z,2.97
2018-03-21T14:53:06.981Z,3.50
2018-03-21T14:55:34.489Z,3.17
2018-03-21T14:58:01.990Z,2.90
2018-03-21T15:00:29.465Z,2.77
2018-03-21T15:02:57.061Z,3.20
2018-03-21T15:05:24.559Z,3.30
2018-03-21T15:07:52.088Z,3.20
2018-03-21T15:10:19.549Z,2.97
2018-03-21T15:12:47.051Z,2.90
2018-03-21T15:15:14.546Z,3.10
2018-03-21T15:17:42.001Z,2.90
2018-03-21T15:20:09.480Z,3.63
2018-03-21T15:22:37.190Z,3.17
2018-03-21T15:25:04.697Z,2.97
2018-03-21T15:27:32.192Z,3.10
2018-03-21T15:29:59.712Z,3.00
2018-03-21T15:32:27.196Z,2.93
2018-03-21T15:34:54.731Z,3.20
2018-03-21T15:37:22.243Z,3.00
2018-03-21T15:39:49.718Z,3.10
2018-03-21T15:42:18.130Z,3.00
2018-03-21T15:44:45.587Z,3.10
2018-03-21T15:47:13.126Z,3.47
2018-03-21T15:49:40.634Z,3.60
2018-03-21T15:52:08.146Z,3.13
2018-03-21T15:54:35.625Z,3.13
2018-03-21T15:57:03.276Z,3.30
2018-03-21T15:59:30.768Z,3.20
2018-03-21T16:01:58.244Z,3.13
2018-03-21T16:04:25.708Z,3.00
2018-03-21T16:06:53.280Z,3.07
2018-03-21T16:09:20.796Z,3.30
2018-03-21T16:11:48.312Z,3.27
2018-03-21T16:14:15.902Z,3.57
2018-03-21T16:16:43.448Z,3.63
2018-03-21T16:19:11.002Z,3.60
2018-03-21T16:21:38.548Z,3.13
2018-03-21T16:24:06.108Z,3.60
2018-03-21T16:26:33.636Z,3.30
2018-03-21T16:29:01.142Z,3.40
2018-03-21T16:31:28.672Z,3.30
2018-03-21T16:33:56.168Z,3.33
2018-03-21T16:36:23.658Z,3.60
2018-03-21T16:38:51.123Z,3.10
2018-03-21T16:41:18.630Z,3.20
2018-03-21T16:43:46.123Z,3.07
2018-03-21T16:46:13.618Z,4.30
2018-03-21T16:48:41.102Z,3.83
2018-03-21T16:51:08.560Z,3.50
2018-03-21T16:53:36.036Z,3.37
2018-03-21T16:56:03.565Z,3.40
2018-03-21T16:58:31.087Z,3.43
2018-03-21T17:00:58.578Z,3.30
2018-03-21T17:03:26.075Z,3.20
2018-03-21T17:05:53.604Z,3.20
2018-03-21T17:08:21.119Z,3.10
2018-03-21T17:10:48.628Z,3.47
2018-03-21T17:13:16.141Z,3.43
2018-03-21T17:15:43.635Z,3.30
2018-03-21T17:18:11.159Z,3.90
2018-03-21T17:20:38.694Z,3.23
2018-03-21T17:23:06.182Z,4.50
2018-03-21T17:25:33.711Z,3.60
2018-03-21T17:28:01.212Z,3.60
2018-03-21T17:30:28.674Z,3.70
2018-03-21T17:32:56.164Z,3.30
2018-03-21T17:35:23.654Z,3.50
2018-03-21T17:37:51.196Z,4.10
2018-03-21T17:40:18.779Z,3.93
2018-03-21T17:42:46.217Z,3.70
2018-03-21T17:45:13.681Z,3.43
2018-03-21T17:47:41.190Z,3.40
2018-03-21T17:50:08.673Z,3.53
2018-03-21T17:52:36.166Z,3.87
2018-03-21T17:55:03.672Z,3.20
2018-03-21T17:57:31.146Z,3.70
2018-03-21T17:59:58.697Z,3.47
2018-03-21T18:02:26.182Z,4.03
2018-03-21T18:04:53.700Z,3.97
2018-03-21T18:07:21.208Z,3.43
2018-03-21T18:09:48.838Z,3.40
2018-03-21T18:12:16.341Z,3.73
2018-03-21T18:14:43.846Z,4.17
2018-03-21T18:17:11.353Z,4.30
2018-03-21T18:19:39.062Z,4.30
2018-03-21T18:22:06.570Z,3.47
2018-03-21T18:24:34.055Z,4.00
2018-03-21T18:27:01.577Z,4.40
2018-03-21T18:29:29.046Z,4.17
2018-03-21T18:31:56.583Z,3.77
2018-03-21T18:34:24.068Z,4.07
2018-03-21T18:36:51.614Z,4.67
2018-03-21T18:39:19.084Z,4.07
2018-03-21T18:41:46.655Z,4.70
2018-03-21T18:44:14.174Z,4.63
2018-03-21T18:46:41.650Z,4.43
2018-03-21T18:49:09.274Z,4.70
2018-03-21T18:51:36.808Z,4.63
2018-03-21T18:54:04.442Z,5.00
2018-03-21T18:56:31.983Z,5.13
2018-03-21T18:58:59.544Z,4.60
2018-03-21T19:01:27.049Z,4.43
2018-03-21T19:03:54.584Z,4.50
2018-03-21T19:06:22.105Z,4.70
2018-03-21T19:08:49.635Z,4.60
2018-03-21T19:11:17.263Z,4.83
2018-03-21T19:13:44.770Z,4.50
2018-03-21T19:16:12.339Z,4.53
2018-03-21T19:18:39.885Z,4.60
2018-03-21T19:21:07.454Z,4.27
2018-03-21T19:23:35.083Z,4.83
2018-03-21T19:26:02.696Z,4.67
2018-03-21T19:28:30.242Z,5.60
2018-03-21T19:30:58.838Z,5.73
2018-03-21T19:33:26.418Z,5.00
2018-03-21T19:35:53.952Z,4.80
2018-03-21T19:38:21.493Z,4.67
2018-03-21T19:40:49.052Z,4.90
2018-03-21T19:43:16.677Z,4.30
2018-03-21T19:45:44.209Z,4.90
2018-03-21T19:48:11.721Z,4.60
2018-03-21T19:50:39.325Z,4.80
2018-03-21T19:53:06.920Z,5.17
2018-03-21T19:55:34.396Z,5.30
2018-03-21T19:58:01.963Z,5.17
2018-03-21T20:00:29.499Z,5.03
2018-03-21T20:02:56.970Z,5.10
2018-03-21T20:05:24.479Z,4.33
2018-03-21T20:07:51.972Z,5.00
2018-03-21T20:10:19.545Z,5.63
2018-03-21T20:12:47.109Z,5.73
2018-03-21T20:15:14.677Z,5.30
2018-03-21T20:17:42.246Z,5.10
2018-03-21T20:20:09.756Z,5.70
2018-03-21T20:22:37.274Z,5.40
2018-03-21T20:25:04.770Z,5.37
2018-03-21T20:27:32.263Z,5.37
2018-03-21T20:29:59.768Z,5.80
2018-03-21T20:32:27.260Z,6.03
2018-03-21T20:34:54.790Z,4.97
2018-03-21T20:37:22.273Z,5.90
2018-03-21T20:39:49.734Z,5.40
2018-03-21T20:42:17.217Z,5.60
2018-03-21T20:44:44.681Z,4.90
2018-03-21T20:47:17.216Z,5.10
2018-03-21T20:49:44.751Z,5.60
2018-03-21T20:52:12.239Z,4.63
2018-03-21T20:54:39.712Z,5.23
2018-03-21T20:57:07.224Z,5.47
2018-03-21T20:59:35.491Z,5.03
2018-03-21T21:02:02.936Z,5.30
2018-03-21T21:04:30.449Z,5.00
2018-03-21T21:06:58.030Z,4.87
2018-03-21T21:09:25.639Z,4.70
2018-03-21T21:11:53.082Z,5.40
2018-03-21T21:14:20.605Z,5.00
2018-03-21T21:16:48.106Z,5.03
2018-03-21T21:19:15.615Z,4.50
2018-03-21T21:21:43.081Z,5.07
2018-03-21T21:24:10.693Z,5.27
2018-03-21T21:26:38.263Z,5.03
2018-03-21T21:29:05.755Z,5.03
2018-03-21T21:31:33.253Z,4.53
2018-03-21T21:34:00.759Z,4.90
2018-03-21T21:36:28.263Z,5.07
2018-03-21T21:38:55.790Z,5.20
2018-03-21T21:41:23.367Z,5.03
2018-03-21T21:43:50.881Z,5.40
2018-03-21T21:46:18.385Z,5.07
2018-03-21T21:48:55.478Z,5.03
2018-03-21T21:51:23.216Z,5.60
2018-03-21T21:53:50.794Z,5.47
2018-03-21T21:56:18.240Z,4.77
2018-03-21T21:58:45.703Z,5.50
2018-03-21T22:01:13.193Z,4.67
2018-03-21T22:03:40.699Z,4.73
2018-03-21T22:06:08.280Z,5.17
2018-03-21T22:08:35.740Z,5.23
2018-03-21T22:11:03.329Z,4.90
2018-03-21T22:13:30.763Z,4.80
2018-03-21T22:15:58.246Z,5.53
2018-03-21T22:18:26.053Z,4.90
2018-03-21T22:20:53.580Z,5.50
2018-03-21T22:23:21.052Z,5.53
2018-03-21T22:25:48.526Z,5.60
2018-03-21T22:28:16.146Z,5.57
2018-03-21T22:30:43.675Z,6.07
2018-03-21T22:33:11.088Z,5.20
2018-03-21T22:35:38.577Z,5.80
2018-03-21T22:38:06.163Z,5.10
2018-03-21T22:40:33.608Z,5.90
2018-03-21T22:43:01.460Z,5.00
2018-03-21T22:45:28.961Z,5.43
2018-03-21T22:47:56.382Z,4.73
2018-03-21T22:50:23.857Z,6.10
2018-03-21T22:52:51.310Z,5.10
2018-03-21T22:55:19.745Z,4.93
2018-03-21T22:57:48.127Z,5.37
2018-03-21T23:00:15.805Z,5.90
2018-03-21T23:02:43.342Z,4.77
2018-03-21T23:05:10.821Z,5.10
2018-03-21T23:07:38.330Z,6.57
2018-03-21T23:10:05.787Z,5.37
2018-03-21T23:12:33.346Z,5.83
2018-03-21T23:15:00.851Z,5.70
2018-03-21T23:17:28.303Z,6.00
2018-03-21T23:19:55.819Z,5.33
2018-03-21T23:22:23.323Z,5.73
2018-03-21T23:24:50.778Z,5.43
2018-03-21T23:27:18.355Z,5.47
2018-03-21T23:29:45.838Z,5.93
2018-03-21T23:32:13.559Z,5.30
2018-03-21T23:34:41.018Z,5.27
2018-03-21T23:37:08.531Z,5.50
2018-03-21T23:39:36.061Z,6.00
2018-03-21T23:42:03.505Z,5.20
2018-03-21T23:44:31.251Z,6.30
2018-03-21T23:46:58.699Z,5.10
2018-03-21T23:49:26.162Z,5.33
2018-03-21T23:51:53.671Z,5.67
2018-03-21T23:54:21.179Z,5.80
2018-03-21T23:56:48.758Z,5.57
2018-03-21T23:59:16.271Z,5.77
